• Join FlightAware (Why Join?)
  • Login
  • US Flag 
09:06AM EDT


 

Airport Tracker/Info


-or-


 

Live Flight TrackerFlight Track Log ✈ AFL1855 ✈ 24-Dec-2013 ✈ UBBB / GYD - UUEE / SVO

Flight Track Log - Related Links

Times and Time Zones

All times are in EST time to prevent confusion due to time zone crossing. See the AFL1855 flight status page for this flight to view local times or setup timezone preferences in your user account.

Time Position Orientation Groundspeed Altitude Reporting Facility
EST Latitude Longitude Course Direction KTS MPH feet Rate Location/Type
08:28AM 47.9450 45.4609 333° Northwest  Level Estimated
08:29AM 48.0641 45.3637 331° Northwest  Level Estimated
08:30AM 48.1832 45.2661 331° Northwest  Level Estimated
08:31AM 48.3021 45.1680 331° Northwest  Level Estimated
08:32AM 48.4210 45.0695 331° Northwest  Level Estimated
08:33AM 48.5398 44.9705 331° Northwest  Level Estimated
08:34AM 48.6585 44.8710 331° Northwest  Level Estimated
08:35AM 48.7772 44.7711 331° Northwest  Level Estimated
08:36AM 48.8957 44.6707 331° Northwest  Level Estimated
08:37AM 49.0142 44.5698 331° Northwest  Level Estimated
08:38AM 49.1325 44.4684 331° Northwest  Level Estimated
08:39AM 49.2508 44.3666 331° Northwest  Level Estimated
08:40AM 49.3690 44.2642 331° Northwest  Level Estimated
08:41AM 49.4871 44.1614 331° Northwest  Level Estimated
08:42AM 49.6051 44.0581 330° Northwest  Level Estimated
08:43AM 49.7230 43.9543 330° Northwest  Level Estimated
08:44AM 49.8409 43.8499 330° Northwest  Level Estimated
08:45AM 49.9586 43.7451 330° Northwest  Level Estimated
08:46AM 50.0762 43.6397 330° Northwest  Level Estimated
08:47AM 50.1937 43.5338 330° Northwest  Level Estimated
08:48AM 50.3112 43.4274 330° Northwest  Level Estimated
08:49AM 50.4285 43.3205 330° Northwest  Level Estimated
08:50AM 50.5458 43.2130 330° Northwest  Level Estimated
08:51AM 50.6629 43.1050 330° Northwest  Level Estimated
08:52AM 50.7799 42.9965 330° Northwest  Level Estimated
08:53AM 50.8969 42.8874 330° Northwest  Level Estimated
08:54AM 51.0137 42.7778 329° Northwest  Level Estimated
08:55AM 51.1305 42.6676 329° Northwest  Level Estimated
08:56AM 51.2471 42.5569 329° Northwest  Level Estimated
08:57AM 51.3636 42.4456 329° Northwest  Level Estimated
08:58AM 51.4800 42.3337 329° Northwest  Level Estimated
08:59AM 51.5964 42.2213 329° Northwest  Level Estimated
09:00AM 51.7126 42.1082 329° Northwest  Level Estimated
09:01AM 51.8287 41.9947 329° Northwest  Level Estimated
09:02AM 51.9447 41.8805 329° Northwest  Level Estimated
09:03AM 52.0606 41.7657 329° Northwest  Level Estimated
09:04AM 52.1763 41.6503 329° Northwest  Level Estimated
09:05AM 52.2920 41.5343 328° Northwest  Level Estimated
09:06AM 52.4075 41.4177 328° Northwest  Level Estimated
09:07AM 52.5229 41.3005 328° Northwest  Level Estimated
09:08AM 52.6382 41.1827 328° Northwest  Level Estimated
09:09AM 52.7534 41.0643 328° Northwest  Level Estimated
09:10AM 52.8685 40.9452 328° Northwest  Level Estimated
09:11AM 52.9834 40.8255 328° Northwest  Level Estimated
09:12AM 53.0983 40.7052 328° Northwest  Level Estimated
09:13AM 53.2130 40.5842 328° Northwest  Level Estimated
09:14AM 53.3276 40.4626 328° Northwest  Level Estimated
09:15AM 53.4420 40.3403 328° Northwest  Level Estimated
09:16AM 53.5564 40.2174 327° Northwest  Level Estimated
09:17AM 53.6706 40.0937 327° Northwest  Level Estimated
09:18AM 53.7846 39.9695 327° Northwest  Level Estimated
09:19AM 53.8986 39.8445 327° Northwest  Level Estimated
09:20AM 54.0124 39.7189 327° Northwest  Level Estimated
09:21AM 54.1261 39.5925 327° Northwest  Level Estimated
09:22AM 54.2397 39.4655 327° Northwest  Level Estimated
09:23AM 54.3531 39.3378 327° Northwest  Level Estimated
09:24AM 54.4664 39.2094 327° Northwest  Level Estimated
09:25AM 54.5795 39.0802 327° Northwest  Level Estimated
09:26AM 54.6925 38.9503 326° Northwest  Level Estimated
09:27AM 54.8054 38.8198 326° Northwest  Level Estimated
09:28AM 54.9181 38.6884 326° Northwest  Level Estimated
09:29AM 55.0307 38.5564 326° Northwest  Level Estimated
09:30AM 55.1432 38.4236 326° Northwest  Level Estimated
09:31AM 55.2555 38.2900 326° Northwest  Level Estimated
09:32AM 55.3676 38.1557 326° Northwest  Level Estimated
09:33AM 55.4796 38.0206 326° Northwest  Level Estimated
09:34AM 55.5915 37.8848 326° Northwest  Level Estimated
09:35AM 55.7032 37.7482 325° Northwest  Level Estimated
09:36AM 55.8147 37.6108 325° Northwest  Level Estimated
09:37AM 55.9261 37.4726 325° Northwest  Level Estimated
09:38AM 55.9726 37.4146 325° Northwest  Level Estimated
09:39AM 55.9726 37.4146 344° North  Level Estimated
09:40AM 55.9726 37.4146 344° North  Level Estimated
09:41AM 55.9726 37.4146 344° North  Level Estimated
09:42AM 55.9726 37.4146 344° North  Level Estimated
09:43AM 55.9726 37.4146 344° North  Level Estimated
09:44AM 55.9726 37.4146 344° North  Level Estimated
09:45AM 55.9726 37.4146 344° North  Level Estimated
09:46AM 55.9726 37.4146 344° North  Level Estimated
09:47AM 55.9726 37.4146 344° North  Level Estimated
09:48AM 55.9726 37.4146 344° North  Level Estimated
09:49AM 55.9726 37.4146 344° North  Level Estimated
09:50AM 55.9726 37.4146 344° North  Level Estimated
09:51AM 55.9726 37.4146 344° North  Level Estimated
09:52AM 55.9726 37.4146 344° North  Level Estimated
09:53AM 55.9726 37.4146 344° North  Level Estimated
09:54AM 55.9726 37.4146 344° North  Level Estimated
09:55AM 55.9726 37.4146 344° North  Level Estimated
09:56AM 55.9726 37.4146 344° North  Level Estimated
09:57AM 55.9726 37.4146 344° North  Level Estimated
09:58AM 55.9726 37.4146 344° North  Level Estimated
09:59AM 55.9726 37.4146 344° North  Level Estimated
10:00AM 55.9726 37.4146 344° North  Level Estimated
10:01AM 55.9726 37.4146 344° North  Level Estimated
10:02AM 55.9726 37.4146 344° North  Level Estimated
10:03AM 55.9726 37.4146 344° North  Level Estimated
10:04AM 55.9726 37.4146 344° North  Level Estimated
10:05AM 55.9726 37.4146 344° North  Level Estimated
10:06AM 55.9726 37.4146 344° North  Level Estimated
10:07AM 55.9726 37.4146 344° North  Level Estimated
10:08AM 55.9726 37.4146 344° North  Level Estimated
10:09AM 55.9726 37.4146 344° North  Level Estimated
10:10AM 55.9726 37.4146 344° North  Level Estimated
10:11AM 55.9726 37.4146 344° North  Level Estimated
10:12AM 55.9726 37.4146 344° North  Level Estimated
10:13AM 55.9726 37.4146 344° North  Level Estimated
10:14AM 55.9726 37.4146 344° North  Level Estimated
10:15AM 55.9726 37.4146 344° North  Level Estimated
10:16AM 55.9726 37.4146 344° North  Level Estimated
10:17AM 55.9726 37.4146 344° North  Level Estimated
10:18AM 55.9726 37.4146 344° North  Level Estimated
10:19AM 55.9726 37.4146 344° North  Level Estimated
10:20AM 55.9726 37.4146 344° North  Level Estimated
10:21AM 55.9726 37.4146 344° North  Level Estimated
10:22AM 55.9726 37.4146 344° North  Level Estimated
10:23AM 55.9726 37.4146 344° North  Level Estimated
10:24AM 55.9726 37.4146 344° North  Level Estimated
10:25AM 55.9726 37.4146 344° North  Level Estimated
10:26AM 55.9726 37.4146 344° North  Level Estimated
10:27AM 55.9726 37.4146 344° North  Level Estimated
10:28AM 55.9726 37.4146 344° North  Level Estimated